createdAt,value
2019-03-18T00:01:51.725Z,95.20
2019-03-18T00:04:20.138Z,95.10
2019-03-18T00:06:48.548Z,95.40
2019-03-18T00:09:16.985Z,95.30
2019-03-18T00:11:45.391Z,95.40
2019-03-18T00:14:13.823Z,95.50
2019-03-18T00:16:42.230Z,95.50
2019-03-18T00:19:10.652Z,95.50
2019-03-18T00:21:39.089Z,95.40
2019-03-18T00:24:07.498Z,95.50
2019-03-18T00:26:35.923Z,95.60
2019-03-18T00:29:04.359Z,95.40
2019-03-18T00:31:32.825Z,95.50
2019-03-18T00:34:01.236Z,95.60
2019-03-18T00:36:29.663Z,95.40
2019-03-18T00:38:58.098Z,95.30
2019-03-18T00:41:26.525Z,95.20
2019-03-18T00:43:54.925Z,95.40
2019-03-18T00:46:23.329Z,95.40
2019-03-18T00:48:51.763Z,95.30
2019-03-18T00:51:20.208Z,95.50
2019-03-18T00:53:48.613Z,95.50
2019-03-18T00:56:17.032Z,95.50
2019-03-18T00:58:45.467Z,95.50
2019-03-18T01:01:13.872Z,95.60
2019-03-18T01:03:42.325Z,95.50
2019-03-18T01:06:10.772Z,95.40
2019-03-18T01:08:39.222Z,95.50
2019-03-18T01:11:07.623Z,95.50
2019-03-18T01:13:36.163Z,95.70
2019-03-18T01:16:04.865Z,95.70
2019-03-18T01:18:33.284Z,95.80
2019-03-18T01:21:01.704Z,95.80
2019-03-18T01:23:30.111Z,95.90
2019-03-18T01:25:58.521Z,96.00
2019-03-18T01:28:26.959Z,95.80
2019-03-18T01:30:55.365Z,95.70
2019-03-18T01:33:23.781Z,95.70
2019-03-18T01:35:52.183Z,95.60
2019-03-18T01:38:20.595Z,95.60
2019-03-18T01:40:49.011Z,95.60
2019-03-18T01:43:17.412Z,95.10
2019-03-18T01:45:45.819Z,95.50
2019-03-18T01:48:14.254Z,95.30
2019-03-18T01:50:42.668Z,95.30
2019-03-18T01:53:11.108Z,95.30
2019-03-18T01:55:39.548Z,95.40
2019-03-18T01:58:07.964Z,95.50
2019-03-18T02:00:37.309Z,95.50
2019-03-18T02:03:05.719Z,95.60
2019-03-18T02:05:34.149Z,95.50
2019-03-18T02:08:02.568Z,95.50
2019-03-18T02:10:30.984Z,95.60
2019-03-18T02:12:59.438Z,95.60
2019-03-18T02:15:27.849Z,95.60
2019-03-18T02:17:56.287Z,95.50
2019-03-18T02:20:24.809Z,95.50
2019-03-18T02:22:53.252Z,95.40
2019-03-18T02:25:21.659Z,95.50
2019-03-18T02:27:50.106Z,95.50
2019-03-18T02:30:19.146Z,95.40
2019-03-18T02:32:47.940Z,95.40
2019-03-18T02:35:16.921Z,95.40
2019-03-18T02:37:45.369Z,95.30
2019-03-18T02:40:14.030Z,95.20
2019-03-18T02:42:42.562Z,95.20
2019-03-18T02:45:11.533Z,95.50
2019-03-18T02:47:40.607Z,95.30
2019-03-18T02:50:09.759Z,95.40
2019-03-18T02:52:38.169Z,95.20
2019-03-18T02:55:07.758Z,95.20
2019-03-18T02:57:36.178Z,95.10
2019-03-18T03:00:07.806Z,95.10
2019-03-18T03:02:36.297Z,94.80
2019-03-18T03:05:06.779Z,94.70
2019-03-18T03:07:35.221Z,94.60
2019-03-18T03:10:04.250Z,95.00
2019-03-18T03:12:32.680Z,94.80
2019-03-18T03:15:01.285Z,94.90
2019-03-18T03:17:29.691Z,95.10
2019-03-18T03:19:58.135Z,95.10
2019-03-18T03:22:26.558Z,95.00
2019-03-18T03:24:55.006Z,95.20
2019-03-18T03:27:23.410Z,95.30
2019-03-18T03:29:51.848Z,95.30
2019-03-18T03:36:01.009Z,95.30
2019-03-18T03:38:29.449Z,95.80
2019-03-18T03:40:57.885Z,96.00
2019-03-18T03:43:26.383Z,96.30
2019-03-18T03:45:54.810Z,96.50
2019-03-18T03:48:23.220Z,96.60
2019-03-18T03:50:51.665Z,96.70
2019-03-18T03:53:20.114Z,96.70
2019-03-18T03:55:48.527Z,97.00
2019-03-18T03:58:17.031Z,97.00
2019-03-18T04:00:45.505Z,97.20
2019-03-18T04:03:13.973Z,97.50
2019-03-18T04:05:42.546Z,97.80
2019-03-18T04:08:11.032Z,98.00
2019-03-18T04:10:39.538Z,98.10
2019-03-18T04:13:07.938Z,98.10
2019-03-18T04:15:36.388Z,98.20
2019-03-18T04:18:04.876Z,98.20
2019-03-18T04:20:33.411Z,98.50
2019-03-18T04:23:01.891Z,98.40
2019-03-18T04:25:30.423Z,98.20
2019-03-18T04:27:58.932Z,98.40
2019-03-18T04:30:27.351Z,98.40
2019-03-18T04:32:55.791Z,98.70
2019-03-18T04:35:24.253Z,98.90
2019-03-18T04:37:52.713Z,99.10
2019-03-18T04:40:21.135Z,99.20
2019-03-18T04:42:49.654Z,99.20
2019-03-18T04:45:18.092Z,99.20
2019-03-18T04:47:46.548Z,99.20
2019-03-18T04:50:15.786Z,99.10
2019-03-18T04:52:44.197Z,98.90
2019-03-18T04:55:12.620Z,98.80
2019-03-18T04:57:41.150Z,98.90
2019-03-18T05:00:13.953Z,99.20
2019-03-18T05:02:42.518Z,99.40
2019-03-18T05:05:10.993Z,99.80
2019-03-18T05:07:39.474Z,99.90
2019-03-18T05:10:09.876Z,99.90
2019-03-18T05:12:38.300Z,99.90
2019-03-18T05:15:08.493Z,99.90
2019-03-18T05:17:36.975Z,99.90
2019-03-18T05:20:07.732Z,99.90
2019-03-18T05:22:35.400Z,99.90
2019-03-18T05:25:04.889Z,99.90
2019-03-18T05:27:33.356Z,99.90
2019-03-18T05:30:01.872Z,99.90
2019-03-18T05:32:30.325Z,99.90
2019-03-18T05:34:58.803Z,99.90
2019-03-18T05:37:27.260Z,99.90
2019-03-18T05:39:55.685Z,99.90
2019-03-18T05:42:24.130Z,99.90
2019-03-18T05:44:52.611Z,99.90
2019-03-18T05:47:21.607Z,99.90
2019-03-18T05:49:50.059Z,99.90
2019-03-18T05:52:18.474Z,99.90
2019-03-18T05:54:46.981Z,99.90
2019-03-18T05:57:15.442Z,99.90
2019-03-18T05:59:43.887Z,99.90
2019-03-18T06:02:12.309Z,99.90
2019-03-18T06:04:40.744Z,99.90
2019-03-18T06:07:09.170Z,99.90
2019-03-18T06:09:37.623Z,99.90
2019-03-18T06:12:06.037Z,99.90
2019-03-18T06:14:34.538Z,99.90
2019-03-18T06:17:02.993Z,99.90
2019-03-18T06:19:31.412Z,99.90
2019-03-18T06:21:59.874Z,99.90
2019-03-18T06:24:28.332Z,99.90
2019-03-18T06:26:56.738Z,99.90
2019-03-18T06:29:27.389Z,99.90
2019-03-18T06:31:55.381Z,99.90
2019-03-18T06:34:24.205Z,99.90
2019-03-18T06:36:54.627Z,99.90
2019-03-18T06:39:23.085Z,99.90
2019-03-18T06:41:51.529Z,99.90
2019-03-18T06:44:19.992Z,99.70
2019-03-18T06:46:48.470Z,99.60
2019-03-18T06:49:17.026Z,99.80
2019-03-18T06:51:45.453Z,99.50
2019-03-18T06:54:13.895Z,99.50
2019-03-18T06:56:42.314Z,99.20
2019-03-18T06:59:10.773Z,99.20
2019-03-18T07:01:39.223Z,99.40
2019-03-18T07:04:07.704Z,99.90
2019-03-18T07:06:36.136Z,99.40
2019-03-18T07:09:06.224Z,99.20
2019-03-18T07:11:34.698Z,99.50
2019-03-18T07:14:03.137Z,97.80
2019-03-18T07:16:31.582Z,95.50
2019-03-18T07:18:59.974Z,94.90
2019-03-18T07:21:28.465Z,93.00
2019-03-18T07:23:57.628Z,92.50
2019-03-18T07:26:27.463Z,93.50
2019-03-18T07:28:56.225Z,94.00
2019-03-18T07:31:24.754Z,93.70
2019-03-18T07:33:53.290Z,90.90
2019-03-18T07:36:21.918Z,90.60
2019-03-18T07:38:50.938Z,87.60
2019-03-18T07:41:19.410Z,84.40
2019-03-18T07:43:47.818Z,82.50
2019-03-18T07:46:16.248Z,80.60
2019-03-18T07:48:45.209Z,79.80
2019-03-18T07:51:13.645Z,80.30
2019-03-18T07:53:42.076Z,77.00
2019-03-18T07:56:10.577Z,77.30
2019-03-18T07:58:39.026Z,74.70
2019-03-18T08:01:07.855Z,72.10
2019-03-18T08:03:37.137Z,71.10
2019-03-18T08:06:06.017Z,72.50
2019-03-18T08:08:36.117Z,73.70
2019-03-18T08:11:05.299Z,72.00
2019-03-18T08:13:34.117Z,70.30
2019-03-18T08:16:02.817Z,69.40
2019-03-18T08:18:42.775Z,67.50
2019-03-18T08:21:04.466Z,67.50
2019-03-18T08:23:36.362Z,68.20
2019-03-18T08:26:05.324Z,65.00
2019-03-18T08:28:33.733Z,64.30
2019-03-18T08:31:02.418Z,66.20
2019-03-18T08:33:32.897Z,69.20
2019-03-18T08:36:02.132Z,72.50
2019-03-18T08:38:30.734Z,75.10
2019-03-18T08:40:59.198Z,73.80
2019-03-18T08:43:27.687Z,74.90
2019-03-18T08:45:56.119Z,76.40
2019-03-18T08:48:24.587Z,71.10
2019-03-18T08:50:53.119Z,70.70
2019-03-18T08:53:21.634Z,69.80
2019-03-18T08:55:50.099Z,66.40
2019-03-18T08:58:18.565Z,64.00
2019-03-18T09:00:47.016Z,62.40
2019-03-18T09:03:15.481Z,61.80
2019-03-18T09:05:43.930Z,59.30
2019-03-18T09:08:14.325Z,60.80
2019-03-18T09:10:42.555Z,63.20
2019-03-18T09:13:10.972Z,63.60
2019-03-18T09:15:39.406Z,63.10
2019-03-18T09:18:07.832Z,62.50
2019-03-18T09:20:36.286Z,60.40
2019-03-18T09:23:04.771Z,59.20
2019-03-18T09:25:33.265Z,59.00
2019-03-18T09:28:01.761Z,59.00
2019-03-18T09:30:30.206Z,57.50
2019-03-18T09:32:58.798Z,57.40
2019-03-18T09:35:27.315Z,58.10
2019-03-18T09:37:55.776Z,59.60
2019-03-18T09:40:24.469Z,60.20
2019-03-18T09:42:53.014Z,60.40
2019-03-18T09:45:21.437Z,59.40
2019-03-18T09:47:49.868Z,58.60
2019-03-18T09:50:18.559Z,57.30
2019-03-18T09:52:47.063Z,57.60
2019-03-18T09:55:15.547Z,54.90
2019-03-18T09:57:44.178Z,51.00
2019-03-18T10:00:14.950Z,51.20
2019-03-18T10:02:43.381Z,53.50
2019-03-18T10:05:11.905Z,55.50
2019-03-18T10:07:40.325Z,56.90
2019-03-18T10:10:10.473Z,59.00
2019-03-18T10:12:38.929Z,60.70
2019-03-18T10:15:15.614Z,60.70
2019-03-18T10:17:44.081Z,62.70
2019-03-18T10:20:12.634Z,64.40
2019-03-18T10:22:41.126Z,62.80
2019-03-18T10:25:09.825Z,65.10
2019-03-18T10:27:38.567Z,63.50
2019-03-18T10:30:14.745Z,64.50
2019-03-18T10:32:43.176Z,62.00
2019-03-18T10:35:11.781Z,61.70
2019-03-18T10:37:40.268Z,62.50
2019-03-18T10:40:11.554Z,62.90
2019-03-18T10:42:40.069Z,62.20
2019-03-18T10:45:12.553Z,61.30
2019-03-18T10:47:41.083Z,60.30
2019-03-18T10:50:14.924Z,59.10
2019-03-18T10:52:43.368Z,56.80
2019-03-18T10:55:12.306Z,57.10
2019-03-18T10:57:40.779Z,58.50
2019-03-18T11:00:14.720Z,58.60
2019-03-18T11:02:45.120Z,59.00
2019-03-18T11:05:14.085Z,60.20
2019-03-18T11:07:42.602Z,59.70
2019-03-18T11:10:16.958Z,59.10
2019-03-18T11:12:45.405Z,58.50
2019-03-18T11:15:21.169Z,57.20
2019-03-18T11:17:49.731Z,55.00
2019-03-18T11:20:18.276Z,54.60
2019-03-18T11:22:46.753Z,53.40
2019-03-18T11:25:16.326Z,53.40
2019-03-18T11:27:44.738Z,52.30
2019-03-18T11:30:15.434Z,50.20
2019-03-18T11:32:43.895Z,49.10
2019-03-18T11:35:12.832Z,51.60
2019-03-18T11:37:41.303Z,50.80
2019-03-18T11:40:17.856Z,48.70
2019-03-18T11:42:46.434Z,48.70
2019-03-18T11:45:16.574Z,48.10
2019-03-18T11:47:45.180Z,47.40
2019-03-18T11:50:15.272Z,45.10
2019-03-18T11:52:43.793Z,46.10
2019-03-18T11:55:15.253Z,44.20
2019-03-18T11:57:44.062Z,45.90
2019-03-18T12:00:18.119Z,45.30
2019-03-18T12:02:46.538Z,45.80
2019-03-18T12:05:28.332Z,44.90
2019-03-18T12:07:56.780Z,47.00
2019-03-18T12:10:26.101Z,49.90
2019-03-18T12:12:54.699Z,52.40
2019-03-18T12:15:26.875Z,59.80
2019-03-18T12:17:55.369Z,64.00
2019-03-18T12:20:25.519Z,65.50
2019-03-18T12:22:54.068Z,65.90
2019-03-18T12:25:22.678Z,66.30
2019-03-18T12:27:51.115Z,66.70
2019-03-18T12:30:24.132Z,67.80
2019-03-18T12:32:52.595Z,67.40
2019-03-18T12:35:21.124Z,68.50
2019-03-18T12:37:49.589Z,70.70
2019-03-18T12:40:18.320Z,70.80
2019-03-18T12:42:46.904Z,72.60
2019-03-18T12:45:17.463Z,74.00
2019-03-18T12:47:46.903Z,73.50
2019-03-18T12:50:39.156Z,75.10
2019-03-18T12:52:55.716Z,77.00
2019-03-18T12:55:24.337Z,79.50
2019-03-18T12:57:52.843Z,79.60
2019-03-18T13:00:27.243Z,80.50
2019-03-18T13:02:55.744Z,77.80
2019-03-18T13:05:24.298Z,77.30
2019-03-18T13:07:52.759Z,75.60
2019-03-18T13:10:22.125Z,72.00
2019-03-18T13:12:50.721Z,70.60
2019-03-18T13:15:20.318Z,69.70
2019-03-18T13:17:49.194Z,67.40
2019-03-18T13:20:23.980Z,64.70
2019-03-18T13:22:54.306Z,62.10
2019-03-18T13:25:23.133Z,59.60
2019-03-18T13:27:51.662Z,55.30
2019-03-18T13:30:21.364Z,54.10
2019-03-18T13:32:50.081Z,56.60
2019-03-18T13:35:18.613Z,58.40
2019-03-18T13:37:47.102Z,59.10
2019-03-18T13:40:17.630Z,58.40
2019-03-18T13:42:46.085Z,54.30
2019-03-18T13:45:20.076Z,52.70
2019-03-18T13:47:48.742Z,53.60
2019-03-18T13:50:21.058Z,52.30
2019-03-18T13:52:49.539Z,54.30
2019-03-18T13:55:18.242Z,53.50
2019-03-18T13:57:46.783Z,55.00
2019-03-18T14:00:17.032Z,52.40
2019-03-18T14:02:45.448Z,55.40
2019-03-18T14:05:14.408Z,54.90
2019-03-18T14:07:42.986Z,55.20
2019-03-18T14:10:19.688Z,55.60
2019-03-18T14:12:48.176Z,57.20
2019-03-18T14:15:20.557Z,57.10
2019-03-18T14:17:49.018Z,58.10
2019-03-18T14:20:19.122Z,58.10
2019-03-18T14:22:47.585Z,56.70
2019-03-18T14:25:16.061Z,57.60
2019-03-18T14:27:44.504Z,56.70
2019-03-18T14:30:15.038Z,54.60
2019-03-18T14:32:43.631Z,55.00
2019-03-18T14:35:12.222Z,54.60
2019-03-18T14:37:40.728Z,54.50
2019-03-18T14:40:11.637Z,55.30
2019-03-18T14:42:40.126Z,54.60
2019-03-18T14:45:12.012Z,55.20
2019-03-18T14:47:40.931Z,56.80
2019-03-18T14:50:11.146Z,57.30
2019-03-18T14:52:39.567Z,56.10
2019-03-18T14:55:10.633Z,56.60
2019-03-18T14:57:39.169Z,56.80
2019-03-18T15:00:21.212Z,57.90
2019-03-18T15:02:49.746Z,58.10
2019-03-18T15:05:18.234Z,56.90
2019-03-18T15:07:46.707Z,57.10
2019-03-18T15:10:17.047Z,55.50
2019-03-18T15:12:45.536Z,55.00
2019-03-18T15:15:20.174Z,54.90
2019-03-18T15:17:48.662Z,55.70
2019-03-18T15:20:19.536Z,56.00
2019-03-18T15:22:47.169Z,55.90
2019-03-18T15:25:26.316Z,54.20
2019-03-18T15:27:54.755Z,53.90
2019-03-18T15:30:23.241Z,54.70
2019-03-18T15:32:51.719Z,54.00
2019-03-18T15:35:20.265Z,55.70
2019-03-18T15:37:48.809Z,55.20
2019-03-18T15:40:22.221Z,55.00
2019-03-18T15:42:50.778Z,55.50
2019-03-18T15:45:20.383Z,55.00
2019-03-18T15:47:48.984Z,54.90
2019-03-18T15:50:22.798Z,54.50
2019-03-18T15:52:51.219Z,54.50
2019-03-18T15:55:19.660Z,53.90
2019-03-18T15:57:48.082Z,54.40
2019-03-18T16:00:19.485Z,53.40
2019-03-18T16:02:47.953Z,55.20
2019-03-18T16:05:16.508Z,56.80
2019-03-18T16:07:44.943Z,57.70
2019-03-18T16:10:17.176Z,58.70
2019-03-18T16:12:45.820Z,59.60
2019-03-18T16:15:15.712Z,60.10
2019-03-18T16:17:44.188Z,60.30
2019-03-18T16:20:20.876Z,59.50
2019-03-18T16:22:49.325Z,59.00
2019-03-18T16:25:17.820Z,58.80
2019-03-18T16:27:46.333Z,58.90
2019-03-18T16:30:19.844Z,59.10
2019-03-18T16:32:48.267Z,58.80
2019-03-18T16:35:17.253Z,60.00
2019-03-18T16:37:45.776Z,59.60
2019-03-18T16:40:16.520Z,59.70
2019-03-18T16:42:44.998Z,60.70
2019-03-18T16:45:15.006Z,61.20
2019-03-18T16:47:43.409Z,62.30
2019-03-18T16:50:20.278Z,63.50
2019-03-18T16:52:48.751Z,64.80
2019-03-18T16:55:17.164Z,65.50
2019-03-18T16:57:45.653Z,66.10
2019-03-18T17:00:21.197Z,66.20
2019-03-18T17:02:49.649Z,66.90
2019-03-18T17:05:18.104Z,67.90
2019-03-18T17:07:46.628Z,67.90
2019-03-18T17:10:16.155Z,68.50
2019-03-18T17:12:44.718Z,68.40
2019-03-18T17:15:17.834Z,68.20
2019-03-18T17:17:46.260Z,68.00
2019-03-18T17:20:15.468Z,67.60
2019-03-18T17:22:49.427Z,68.40
2019-03-18T17:25:26.202Z,69.10
2019-03-18T17:27:54.678Z,69.80
2019-03-18T17:30:23.105Z,70.80
2019-03-18T17:32:51.589Z,71.30
2019-03-18T17:35:20.064Z,71.70
2019-03-18T17:37:48.591Z,71.90
2019-03-18T17:40:18.123Z,72.80
2019-03-18T17:42:46.605Z,72.50
2019-03-18T17:45:16.215Z,72.70
2019-03-18T17:47:44.819Z,73.40
2019-03-18T17:50:27.935Z,75.10
2019-03-18T17:53:02.850Z,74.30
2019-03-18T17:55:27.657Z,76.10
2019-03-18T17:57:56.097Z,77.00
2019-03-18T18:00:35.120Z,77.80
2019-03-18T18:03:03.598Z,77.90
2019-03-18T18:05:32.204Z,78.90
2019-03-18T18:08:05.232Z,79.50
2019-03-18T18:10:33.704Z,79.70
2019-03-18T18:13:02.177Z,80.40
2019-03-18T18:15:30.711Z,80.70
2019-03-18T18:17:59.200Z,81.70
2019-03-18T18:20:27.611Z,81.70
2019-03-18T18:22:56.080Z,82.00
2019-03-18T18:25:24.578Z,81.50
2019-03-18T18:27:53.037Z,81.80
2019-03-18T18:30:21.512Z,82.30
2019-03-18T18:32:49.983Z,82.30
2019-03-18T18:35:18.458Z,82.90
2019-03-18T18:37:46.983Z,82.60
2019-03-18T18:40:21.012Z,82.20
2019-03-18T18:42:49.435Z,83.20
2019-03-18T18:45:17.930Z,82.70
2019-03-18T18:47:46.379Z,82.60
2019-03-18T18:50:14.905Z,82.20
2019-03-18T18:52:43.380Z,80.70
2019-03-18T18:55:15.045Z,81.30
2019-03-18T18:57:43.470Z,81.40
2019-03-18T19:00:18.899Z,81.30
2019-03-18T19:02:47.377Z,81.60
2019-03-18T19:05:16.644Z,82.20
2019-03-18T19:07:45.362Z,82.70
2019-03-18T19:10:20.506Z,83.30
2019-03-18T19:12:49.731Z,83.30
2019-03-18T19:15:26.475Z,83.50
2019-03-18T19:17:55.180Z,82.90
2019-03-18T19:20:23.651Z,83.10
2019-03-18T19:22:52.103Z,83.70
2019-03-18T19:25:20.538Z,83.50
2019-03-18T19:27:49.086Z,83.90
2019-03-18T19:30:18.759Z,83.20
2019-03-18T19:32:47.349Z,84.20
2019-03-18T19:35:15.950Z,83.90
2019-03-18T19:37:44.505Z,85.30
2019-03-18T19:40:18.205Z,84.00
2019-03-18T19:42:46.933Z,85.00
2019-03-18T19:47:44.076Z,85.70
2019-03-18T19:50:15.121Z,86.00
2019-03-18T19:52:43.627Z,86.30
2019-03-18T19:55:12.046Z,87.00
2019-03-18T19:57:40.538Z,86.80
2019-03-18T20:00:18.356Z,87.10
2019-03-18T20:02:46.781Z,88.70
2019-03-18T20:05:17.654Z,87.60
2019-03-18T20:07:45.428Z,87.90
2019-03-18T20:10:15.857Z,87.70
2019-03-18T20:12:44.384Z,87.80
2019-03-18T20:15:14.533Z,88.30
2019-03-18T20:17:43.067Z,88.90
2019-03-18T20:20:14.602Z,89.30
2019-03-18T20:22:43.105Z,89.40
2019-03-18T20:25:12.669Z,89.40
2019-03-18T20:27:41.068Z,89.50
2019-03-18T20:30:17.528Z,89.70
2019-03-18T20:32:45.929Z,89.50
2019-03-18T20:35:17.983Z,89.60
2019-03-18T20:37:46.454Z,89.90
2019-03-18T20:40:16.022Z,90.00
2019-03-18T20:42:44.435Z,89.80
2019-03-18T20:45:17.417Z,90.20
2019-03-18T20:47:45.856Z,90.10
2019-03-18T20:50:18.854Z,90.50
2019-03-18T20:52:47.279Z,90.60
2019-03-18T20:55:16.397Z,90.90
2019-03-18T20:57:44.967Z,90.90
2019-03-18T21:00:19.084Z,91.40
2019-03-18T21:02:47.621Z,91.40
2019-03-18T21:05:16.112Z,91.50
2019-03-18T21:07:44.655Z,91.60
2019-03-18T21:10:15.390Z,91.60
2019-03-18T21:12:43.850Z,91.80
2019-03-18T21:15:13.304Z,92.00
2019-03-18T21:18:01.127Z,92.10
2019-03-18T21:20:30.006Z,92.20
2019-03-18T21:22:58.541Z,92.30
2019-03-18T21:25:27.042Z,92.90
2019-03-18T21:27:55.454Z,93.00
2019-03-18T21:30:23.973Z,92.90
2019-03-18T21:32:52.432Z,93.00
2019-03-18T21:35:20.937Z,92.90
2019-03-18T21:37:49.449Z,93.00
2019-03-18T21:40:18.805Z,93.00
2019-03-18T21:42:47.272Z,93.10
2019-03-18T21:45:23.149Z,93.20
2019-03-18T21:47:50.803Z,93.40
2019-03-18T21:50:19.218Z,93.60
2019-03-18T21:52:48.504Z,93.90
2019-03-18T21:55:17.303Z,94.00
2019-03-18T21:57:45.849Z,94.10
2019-03-18T22:00:17.371Z,94.10
2019-03-18T22:02:45.897Z,94.20
2019-03-18T22:05:14.660Z,94.20
2019-03-18T22:07:43.203Z,94.20
2019-03-18T22:12:38.351Z,94.10
2019-03-18T22:15:09.307Z,94.20
2019-03-18T22:17:37.765Z,94.30
2019-03-18T22:20:09.279Z,94.20
2019-03-18T22:22:37.759Z,94.00
2019-03-18T22:25:07.963Z,94.10
2019-03-18T22:27:36.388Z,94.30
2019-03-18T22:30:07.553Z,94.40
2019-03-18T22:32:36.011Z,94.60
2019-03-18T22:35:06.745Z,94.60
2019-03-18T22:37:35.275Z,94.70
2019-03-18T22:40:05.922Z,94.70
2019-03-18T22:42:34.405Z,94.60
2019-03-18T22:45:03.092Z,94.60
2019-03-18T22:47:31.567Z,94.70
2019-03-18T22:49:59.981Z,95.00
2019-03-18T22:52:28.411Z,94.90
2019-03-18T22:54:56.864Z,95.50
2019-03-18T22:57:25.360Z,95.60
2019-03-18T22:59:53.776Z,95.20
2019-03-18T23:02:22.241Z,95.10
2019-03-18T23:04:50.620Z,95.20
2019-03-18T23:07:19.048Z,95.50
2019-03-18T23:09:47.520Z,95.40
2019-03-18T23:12:16.020Z,95.40
2019-03-18T23:14:44.526Z,95.80
2019-03-18T23:17:12.921Z,95.40
2019-03-18T23:19:41.398Z,95.60
2019-03-18T23:22:09.832Z,95.50
2019-03-18T23:24:38.291Z,95.40
2019-03-18T23:27:06.799Z,95.60
2019-03-18T23:29:35.220Z,95.70
2019-03-18T23:32:03.713Z,95.80
2019-03-18T23:34:32.149Z,95.80
2019-03-18T23:37:00.622Z,96.00
2019-03-18T23:39:29.038Z,96.10
2019-03-18T23:41:57.486Z,95.90
2019-03-18T23:44:28.261Z,95.90
2019-03-18T23:46:56.107Z,95.80
2019-03-18T23:49:24.521Z,95.80
2019-03-18T23:51:52.945Z,95.90
2019-03-18T23:54:21.391Z,96.30
2019-03-18T23:56:49.790Z,96.60
2019-03-18T23:59:18.256Z,96.50
